sensor_id;sensor_type;location;lat;lon;timestamp;P1;durP1;ratioP1;P2;durP2;ratioP2
16242;SDS011;11719;51.052;6.982;2022-08-19T00:01:39;12.83;;;11.50;;
16242;SDS011;11719;51.052;6.982;2022-08-19T00:04:08;12.50;;;11.40;;
16242;SDS011;11719;51.052;6.982;2022-08-19T00:06:37;14.20;;;12.80;;
16242;SDS011;11719;51.052;6.982;2022-08-19T00:09:08;13.60;;;12.33;;
16242;SDS011;11719;51.052;6.982;2022-08-19T00:11:37;12.00;;;10.93;;
16242;SDS011;11719;51.052;6.982;2022-08-19T00:14:05;12.90;;;11.63;;
16242;SDS011;11719;51.052;6.982;2022-08-19T00:16:35;12.53;;;11.23;;
16242;SDS011;11719;51.052;6.982;2022-08-19T00:19:03;13.67;;;12.27;;
16242;SDS011;11719;51.052;6.982;2022-08-19T00:21:30;12.60;;;11.40;;
16242;SDS011;11719;51.052;6.982;2022-08-19T00:23:56;13.13;;;11.80;;
16242;SDS011;11719;51.052;6.982;2022-08-19T00:26:23;13.20;;;11.90;;
16242;SDS011;11719;51.052;6.982;2022-08-19T00:28:51;15.13;;;12.47;;
16242;SDS011;11719;51.052;6.982;2022-08-19T00:31:17;16.17;;;11.97;;
16242;SDS011;11719;51.052;6.982;2022-08-19T00:33:43;13.13;;;12.03;;
16242;SDS011;11719;51.052;6.982;2022-08-19T00:36:09;12.43;;;11.43;;
16242;SDS011;11719;51.052;6.982;2022-08-19T00:38:36;12.93;;;11.83;;
16242;SDS011;11719;51.052;6.982;2022-08-19T00:41:08;13.50;;;12.27;;
16242;SDS011;11719;51.052;6.982;2022-08-19T00:43:37;13.03;;;11.80;;
16242;SDS011;11719;51.052;6.982;2022-08-19T00:46:04;12.83;;;11.63;;
16242;SDS011;11719;51.052;6.982;2022-08-19T00:48:30;13.97;;;12.53;;
16242;SDS011;11719;51.052;6.982;2022-08-19T00:50:58;14.17;;;12.77;;
16242;SDS011;11719;51.052;6.982;2022-08-19T00:53:26;14.27;;;12.90;;
16242;SDS011;11719;51.052;6.982;2022-08-19T00:55:54;14.17;;;12.90;;
16242;SDS011;11719;51.052;6.982;2022-08-19T00:58:24;13.47;;;12.37;;
16242;SDS011;11719;51.052;6.982;2022-08-19T01:00:55;13.20;;;12.10;;
16242;SDS011;11719;51.052;6.982;2022-08-19T01:03:21;14.93;;;13.50;;
16242;SDS011;11719;51.052;6.982;2022-08-19T01:05:48;13.10;;;11.90;;
16242;SDS011;11719;51.052;6.982;2022-08-19T01:08:16;14.23;;;12.87;;
16242;SDS011;11719;51.052;6.982;2022-08-19T01:10:50;13.97;;;12.57;;
16242;SDS011;11719;51.052;6.982;2022-08-19T01:13:26;15.13;;;13.63;;
16242;SDS011;11719;51.052;6.982;2022-08-19T01:16:06;13.97;;;12.67;;
16242;SDS011;11719;51.052;6.982;2022-08-19T01:18:38;14.83;;;13.50;;
16242;SDS011;11719;51.052;6.982;2022-08-19T01:21:09;14.13;;;12.83;;
16242;SDS011;11719;51.052;6.982;2022-08-19T01:23:47;15.50;;;14.03;;
16242;SDS011;11719;51.052;6.982;2022-08-19T01:26:15;15.67;;;14.03;;
16242;SDS011;11719;51.052;6.982;2022-08-19T01:28:47;13.90;;;12.77;;
16242;SDS011;11719;51.052;6.982;2022-08-19T01:31:23;15.50;;;13.90;;
16242;SDS011;11719;51.052;6.982;2022-08-19T01:33:53;15.23;;;13.73;;
16242;SDS011;11719;51.052;6.982;2022-08-19T01:36:23;14.97;;;13.67;;
16242;SDS011;11719;51.052;6.982;2022-08-19T01:39:02;14.77;;;13.37;;
16242;SDS011;11719;51.052;6.982;2022-08-19T01:41:32;16.27;;;14.57;;
16242;SDS011;11719;51.052;6.982;2022-08-19T01:43:58;15.60;;;14.20;;
16242;SDS011;11719;51.052;6.982;2022-08-19T01:46:28;15.90;;;14.50;;
16242;SDS011;11719;51.052;6.982;2022-08-19T01:48:56;14.30;;;13.17;;
16242;SDS011;11719;51.052;6.982;2022-08-19T01:51:22;15.77;;;14.37;;
16242;SDS011;11719;51.052;6.982;2022-08-19T01:53:48;15.57;;;14.20;;
16242;SDS011;11719;51.052;6.982;2022-08-19T01:56:15;15.63;;;14.20;;
16242;SDS011;11719;51.052;6.982;2022-08-19T01:59:00;17.30;;;15.70;;
16242;SDS011;11719;51.052;6.982;2022-08-19T02:01:31;15.80;;;14.30;;
16242;SDS011;11719;51.052;6.982;2022-08-19T02:03:57;15.60;;;14.20;;
16242;SDS011;11719;51.052;6.982;2022-08-19T02:06:25;14.93;;;13.33;;
16242;SDS011;11719;51.052;6.982;2022-08-19T02:08:52;15.93;;;14.43;;
16242;SDS011;11719;51.052;6.982;2022-08-19T02:11:20;15.03;;;13.73;;
16242;SDS011;11719;51.052;6.982;2022-08-19T02:13:59;16.50;;;14.90;;
16242;SDS011;11719;51.052;6.982;2022-08-19T02:16:27;17.03;;;15.20;;
16242;SDS011;11719;51.052;6.982;2022-08-19T02:18:54;16.13;;;14.33;;
16242;SDS011;11719;51.052;6.982;2022-08-19T02:21:20;16.03;;;14.73;;
16242;SDS011;11719;51.052;6.982;2022-08-19T02:23:49;16.83;;;15.20;;
16242;SDS011;11719;51.052;6.982;2022-08-19T02:26:16;16.53;;;14.93;;
16242;SDS011;11719;51.052;6.982;2022-08-19T02:28:43;16.97;;;15.37;;
16242;SDS011;11719;51.052;6.982;2022-08-19T02:31:10;16.60;;;15.03;;
16242;SDS011;11719;51.052;6.982;2022-08-19T02:33:39;18.63;;;16.70;;
16242;SDS011;11719;51.052;6.982;2022-08-19T02:36:06;18.70;;;16.80;;
16242;SDS011;11719;51.052;6.982;2022-08-19T02:38:33;18.83;;;16.93;;
16242;SDS011;11719;51.052;6.982;2022-08-19T02:41:01;19.27;;;17.47;;
16242;SDS011;11719;51.052;6.982;2022-08-19T02:43:32;20.77;;;18.87;;
16242;SDS011;11719;51.052;6.982;2022-08-19T02:46:24;20.23;;;18.43;;
16242;SDS011;11719;51.052;6.982;2022-08-19T02:48:53;20.00;;;18.07;;
16242;SDS011;11719;51.052;6.982;2022-08-19T02:51:24;19.93;;;18.00;;
16242;SDS011;11719;51.052;6.982;2022-08-19T02:54:01;20.30;;;17.83;;
16242;SDS011;11719;51.052;6.982;2022-08-19T02:56:29;19.83;;;17.93;;
16242;SDS011;11719;51.052;6.982;2022-08-19T02:58:56;19.37;;;17.57;;
16242;SDS011;11719;51.052;6.982;2022-08-19T03:01:27;19.83;;;18.07;;
16242;SDS011;11719;51.052;6.982;2022-08-19T03:03:58;19.40;;;17.60;;
16242;SDS011;11719;51.052;6.982;2022-08-19T03:06:27;19.23;;;17.43;;
16242;SDS011;11719;51.052;6.982;2022-08-19T03:08:54;18.47;;;16.73;;
16242;SDS011;11719;51.052;6.982;2022-08-19T03:11:25;18.97;;;17.27;;
16242;SDS011;11719;51.052;6.982;2022-08-19T03:13:54;19.07;;;16.47;;
16242;SDS011;11719;51.052;6.982;2022-08-19T03:16:22;17.13;;;15.43;;
16242;SDS011;11719;51.052;6.982;2022-08-19T03:18:50;19.23;;;17.43;;
16242;SDS011;11719;51.052;6.982;2022-08-19T03:21:18;18.00;;;16.40;;
16242;SDS011;11719;51.052;6.982;2022-08-19T03:23:48;19.53;;;17.50;;
16242;SDS011;11719;51.052;6.982;2022-08-19T03:26:15;18.70;;;16.97;;
16242;SDS011;11719;51.052;6.982;2022-08-19T03:28:42;18.83;;;17.13;;
16242;SDS011;11719;51.052;6.982;2022-08-19T03:31:11;17.90;;;16.20;;
16242;SDS011;11719;51.052;6.982;2022-08-19T03:33:39;17.77;;;16.17;;
16242;SDS011;11719;51.052;6.982;2022-08-19T03:38:38;19.30;;;17.43;;
16242;SDS011;11719;51.052;6.982;2022-08-19T03:41:10;19.30;;;17.43;;
16242;SDS011;11719;51.052;6.982;2022-08-19T03:43:48;18.20;;;16.40;;
16242;SDS011;11719;51.052;6.982;2022-08-19T03:46:16;19.23;;;17.43;;
16242;SDS011;11719;51.052;6.982;2022-08-19T03:48:46;18.37;;;16.67;;
16242;SDS011;11719;51.052;6.982;2022-08-19T03:51:23;18.97;;;17.03;;
16242;SDS011;11719;51.052;6.982;2022-08-19T03:53:56;18.93;;;16.93;;
16242;SDS011;11719;51.052;6.982;2022-08-19T03:56:25;17.87;;;16.23;;
16242;SDS011;11719;51.052;6.982;2022-08-19T03:58:53;19.70;;;17.80;;
16242;SDS011;11719;51.052;6.982;2022-08-19T04:01:22;18.17;;;16.47;;
16242;SDS011;11719;51.052;6.982;2022-08-19T04:03:55;19.53;;;17.47;;
16242;SDS011;11719;51.052;6.982;2022-08-19T04:06:23;18.93;;;17.10;;
16242;SDS011;11719;51.052;6.982;2022-08-19T04:08:59;18.27;;;16.50;;
16242;SDS011;11719;51.052;6.982;2022-08-19T04:11:29;18.43;;;16.53;;
16242;SDS011;11719;51.052;6.982;2022-08-19T04:14:00;18.67;;;16.23;;
16242;SDS011;11719;51.052;6.982;2022-08-19T04:16:27;18.40;;;16.67;;
16242;SDS011;11719;51.052;6.982;2022-08-19T04:18:54;17.83;;;16.03;;
16242;SDS011;11719;51.052;6.982;2022-08-19T04:21:26;19.20;;;17.23;;
16242;SDS011;11719;51.052;6.982;2022-08-19T04:23:53;18.50;;;16.50;;
16242;SDS011;11719;51.052;6.982;2022-08-19T04:26:22;18.47;;;16.77;;
16242;SDS011;11719;51.052;6.982;2022-08-19T04:28:52;19.40;;;17.33;;
16242;SDS011;11719;51.052;6.982;2022-08-19T04:31:24;18.70;;;17.00;;
16242;SDS011;11719;51.052;6.982;2022-08-19T04:33:53;18.23;;;16.33;;
16242;SDS011;11719;51.052;6.982;2022-08-19T04:36:22;18.90;;;17.10;;
16242;SDS011;11719;51.052;6.982;2022-08-19T04:38:58;17.40;;;15.83;;
16242;SDS011;11719;51.052;6.982;2022-08-19T04:41:30;17.93;;;16.17;;
16242;SDS011;11719;51.052;6.982;2022-08-19T04:44:14;18.00;;;16.27;;
16242;SDS011;11719;51.052;6.982;2022-08-19T04:46:43;18.60;;;16.70;;
16242;SDS011;11719;51.052;6.982;2022-08-19T04:49:13;18.10;;;16.33;;
16242;SDS011;11719;51.052;6.982;2022-08-19T04:51:41;18.33;;;16.57;;
16242;SDS011;11719;51.052;6.982;2022-08-19T04:54:10;18.23;;;16.53;;
16242;SDS011;11719;51.052;6.982;2022-08-19T04:56:36;18.20;;;16.50;;
16242;SDS011;11719;51.052;6.982;2022-08-19T04:59:04;18.97;;;17.20;;
16242;SDS011;11719;51.052;6.982;2022-08-19T05:01:30;19.20;;;16.70;;
16242;SDS011;11719;51.052;6.982;2022-08-19T05:03:58;18.37;;;16.67;;
16242;SDS011;11719;51.052;6.982;2022-08-19T05:06:26;15.90;;;14.20;;
16242;SDS011;11719;51.052;6.982;2022-08-19T05:08:53;17.53;;;15.93;;
16242;SDS011;11719;51.052;6.982;2022-08-19T05:11:22;19.87;;;17.83;;
16242;SDS011;11719;51.052;6.982;2022-08-19T05:13:51;20.60;;;18.53;;
16242;SDS011;11719;51.052;6.982;2022-08-19T05:16:18;20.00;;;18.13;;
16242;SDS011;11719;51.052;6.982;2022-08-19T05:18:47;21.53;;;19.37;;
16242;SDS011;11719;51.052;6.982;2022-08-19T05:21:32;21.47;;;19.53;;
16242;SDS011;11719;51.052;6.982;2022-08-19T05:24:17;21.73;;;19.53;;
16242;SDS011;11719;51.052;6.982;2022-08-19T05:26:45;20.73;;;18.80;;
16242;SDS011;11719;51.052;6.982;2022-08-19T05:29:15;20.43;;;18.43;;
16242;SDS011;11719;51.052;6.982;2022-08-19T05:31:43;21.03;;;18.97;;
16242;SDS011;11719;51.052;6.982;2022-08-19T05:34:10;20.33;;;18.33;;
16242;SDS011;11719;51.052;6.982;2022-08-19T05:36:38;19.93;;;18.10;;
16242;SDS011;11719;51.052;6.982;2022-08-19T05:39:09;21.07;;;19.13;;
16242;SDS011;11719;51.052;6.982;2022-08-19T05:41:42;21.20;;;19.00;;
16242;SDS011;11719;51.052;6.982;2022-08-19T05:44:09;21.63;;;19.33;;
16242;SDS011;11719;51.052;6.982;2022-08-19T05:46:36;21.33;;;19.03;;
16242;SDS011;11719;51.052;6.982;2022-08-19T05:49:04;23.40;;;19.30;;
16242;SDS011;11719;51.052;6.982;2022-08-19T05:51:32;24.97;;;22.20;;
16242;SDS011;11719;51.052;6.982;2022-08-19T05:54:04;27.33;;;24.43;;
16242;SDS011;11719;51.052;6.982;2022-08-19T05:56:31;34.57;;;31.07;;
16242;SDS011;11719;51.052;6.982;2022-08-19T05:58:58;34.70;;;30.33;;
16242;SDS011;11719;51.052;6.982;2022-08-19T06:01:24;42.73;;;37.67;;
16242;SDS011;11719;51.052;6.982;2022-08-19T06:03:51;43.87;;;39.20;;
16242;SDS011;11719;51.052;6.982;2022-08-19T06:06:17;46.70;;;39.40;;
16242;SDS011;11719;51.052;6.982;2022-08-19T06:08:45;45.10;;;40.50;;
16242;SDS011;11719;51.052;6.982;2022-08-19T06:13:51;47.37;;;41.83;;
16242;SDS011;11719;51.052;6.982;2022-08-19T06:16:19;48.83;;;42.50;;
16242;SDS011;11719;51.052;6.982;2022-08-19T06:18:51;47.83;;;42.27;;
16242;SDS011;11719;51.052;6.982;2022-08-19T06:21:19;47.83;;;42.73;;
16242;SDS011;11719;51.052;6.982;2022-08-19T06:23:47;44.10;;;39.30;;
16242;SDS011;11719;51.052;6.982;2022-08-19T06:26:14;48.57;;;43.27;;
16242;SDS011;11719;51.052;6.982;2022-08-19T06:28:41;48.03;;;41.47;;
16242;SDS011;11719;51.052;6.982;2022-08-19T06:31:17;44.73;;;40.00;;
16242;SDS011;11719;51.052;6.982;2022-08-19T06:33:49;44.03;;;39.50;;
16242;SDS011;11719;51.052;6.982;2022-08-19T06:36:25;45.93;;;41.03;;
16242;SDS011;11719;51.052;6.982;2022-08-19T06:38:59;48.73;;;41.90;;
16242;SDS011;11719;51.052;6.982;2022-08-19T06:41:40;43.07;;;38.50;;
16242;SDS011;11719;51.052;6.982;2022-08-19T06:44:09;45.23;;;40.37;;
16242;SDS011;11719;51.052;6.982;2022-08-19T06:46:35;32.53;;;29.33;;
16242;SDS011;11719;51.052;6.982;2022-08-19T06:49:02;45.77;;;40.87;;
16242;SDS011;11719;51.052;6.982;2022-08-19T06:51:29;46.17;;;41.20;;
16242;SDS011;11719;51.052;6.982;2022-08-19T06:53:56;36.77;;;33.10;;
16242;SDS011;11719;51.052;6.982;2022-08-19T06:56:24;47.45;;;42.42;;
16242;SDS011;11719;51.052;6.982;2022-08-19T06:58:58;36.20;;;32.63;;
16242;SDS011;11719;51.052;6.982;2022-08-19T07:01:30;45.67;;;40.87;;
16242;SDS011;11719;51.052;6.982;2022-08-19T07:04:26;36.63;;;32.87;;
16242;SDS011;11719;51.052;6.982;2022-08-19T07:06:57;40.97;;;36.83;;
16242;SDS011;11719;51.052;6.982;2022-08-19T07:09:26;44.13;;;39.50;;
16242;SDS011;11719;51.052;6.982;2022-08-19T07:11:53;42.67;;;38.33;;
16242;SDS011;11719;51.052;6.982;2022-08-19T07:14:22;44.37;;;39.67;;
16242;SDS011;11719;51.052;6.982;2022-08-19T07:16:51;37.47;;;33.60;;
16242;SDS011;11719;51.052;6.982;2022-08-19T07:19:20;39.83;;;35.80;;
16242;SDS011;11719;51.052;6.982;2022-08-19T07:21:48;29.93;;;26.70;;
16242;SDS011;11719;51.052;6.982;2022-08-19T07:24:18;28.53;;;25.67;;
16242;SDS011;11719;51.052;6.982;2022-08-19T07:26:46;39.40;;;35.33;;
16242;SDS011;11719;51.052;6.982;2022-08-19T07:29:12;41.07;;;34.60;;
16242;SDS011;11719;51.052;6.982;2022-08-19T07:31:38;29.50;;;26.33;;
16242;SDS011;11719;51.052;6.982;2022-08-19T07:34:05;39.93;;;35.83;;
16242;SDS011;11719;51.052;6.982;2022-08-19T07:36:34;27.87;;;25.00;;
16242;SDS011;11719;51.052;6.982;2022-08-19T07:39:05;31.27;;;27.97;;
16242;SDS011;11719;51.052;6.982;2022-08-19T07:41:35;39.63;;;33.33;;
16242;SDS011;11719;51.052;6.982;2022-08-19T07:44:02;36.67;;;32.87;;
16242;SDS011;11719;51.052;6.982;2022-08-19T07:46:31;39.47;;;34.85;;
16242;SDS011;11719;51.052;6.982;2022-08-19T07:48:58;35.30;;;30.63;;
16242;SDS011;11719;51.052;6.982;2022-08-19T07:51:25;39.35;;;34.95;;
16242;SDS011;11719;51.052;6.982;2022-08-19T07:53:51;34.73;;;31.00;;
16242;SDS011;11719;51.052;6.982;2022-08-19T07:56:18;37.40;;;33.53;;
16242;SDS011;11719;51.052;6.982;2022-08-19T07:58:46;35.60;;;31.67;;
16242;SDS011;11719;51.052;6.982;2022-08-19T08:01:16;39.15;;;35.10;;
16242;SDS011;11719;51.052;6.982;2022-08-19T08:03:50;36.97;;;33.20;;
16242;SDS011;11719;51.052;6.982;2022-08-19T08:06:37;29.65;;;26.60;;
16242;SDS011;11719;51.052;6.982;2022-08-19T08:09:26;36.70;;;32.58;;
16242;SDS011;11719;51.052;6.982;2022-08-19T08:12:08;39.22;;;35.00;;
16242;SDS011;11719;51.052;6.982;2022-08-19T08:14:41;40.70;;;36.43;;
16242;SDS011;11719;51.052;6.982;2022-08-19T08:17:11;39.90;;;35.03;;
16242;SDS011;11719;51.052;6.982;2022-08-19T08:19:39;37.42;;;33.42;;
16242;SDS011;11719;51.052;6.982;2022-08-19T08:22:06;31.83;;;27.73;;
16242;SDS011;11719;51.052;6.982;2022-08-19T08:24:53;35.60;;;31.98;;
16242;SDS011;11719;51.052;6.982;2022-08-19T08:27:23;39.97;;;35.85;;
16242;SDS011;11719;51.052;6.982;2022-08-19T08:29:49;32.92;;;29.42;;
16242;SDS011;11719;51.052;6.982;2022-08-19T08:32:15;46.03;;;39.47;;
16242;SDS011;11719;51.052;6.982;2022-08-19T08:34:41;44.80;;;37.78;;
16242;SDS011;11719;51.052;6.982;2022-08-19T08:37:07;39.90;;;35.63;;
16242;SDS011;11719;51.052;6.982;2022-08-19T08:39:33;42.03;;;33.95;;
16242;SDS011;11719;51.052;6.982;2022-08-19T08:42:07;48.30;;;40.00;;
16242;SDS011;11719;51.052;6.982;2022-08-19T08:47:33;41.93;;;36.33;;
16242;SDS011;11719;51.052;6.982;2022-08-19T08:50:06;42.58;;;36.83;;
16242;SDS011;11719;51.052;6.982;2022-08-19T08:52:41;40.83;;;36.43;;
16242;SDS011;11719;51.052;6.982;2022-08-19T08:55:24;40.20;;;34.73;;
16242;SDS011;11719;51.052;6.982;2022-08-19T09:00:23;44.27;;;38.90;;
16242;SDS011;11719;51.052;6.982;2022-08-19T09:02:58;40.63;;;35.65;;
16242;SDS011;11719;51.052;6.982;2022-08-19T09:11:38;26.20;;;22.73;;
16242;SDS011;11719;51.052;6.982;2022-08-19T09:14:35;54.35;;;45.85;;
16242;SDS011;11719;51.052;6.982;2022-08-19T09:17:07;56.88;;;45.22;;
16242;SDS011;11719;51.052;6.982;2022-08-19T09:19:35;57.13;;;46.35;;
16242;SDS011;11719;51.052;6.982;2022-08-19T09:22:15;59.97;;;44.95;;
16242;SDS011;11719;51.052;6.982;2022-08-19T09:24:41;49.72;;;40.67;;
16242;SDS011;11719;51.052;6.982;2022-08-19T09:27:07;29.00;;;25.00;;
16242;SDS011;11719;51.052;6.982;2022-08-19T09:29:33;41.95;;;32.33;;
16242;SDS011;11719;51.052;6.982;2022-08-19T09:31:59;46.28;;;39.13;;
16242;SDS011;11719;51.052;6.982;2022-08-19T09:34:25;47.75;;;37.00;;
16242;SDS011;11719;51.052;6.982;2022-08-19T09:36:51;31.17;;;27.85;;
16242;SDS011;11719;51.052;6.982;2022-08-19T09:39:18;20.52;;;18.38;;
16242;SDS011;11719;51.052;6.982;2022-08-19T09:41:44;35.42;;;29.88;;
16242;SDS011;11719;51.052;6.982;2022-08-19T09:44:10;26.38;;;22.77;;
16242;SDS011;11719;51.052;6.982;2022-08-19T09:46:37;28.58;;;25.55;;
16242;SDS011;11719;51.052;6.982;2022-08-19T09:49:03;32.25;;;26.83;;
16242;SDS011;11719;51.052;6.982;2022-08-19T09:51:31;30.02;;;25.42;;
16242;SDS011;11719;51.052;6.982;2022-08-19T09:53:59;31.98;;;26.55;;
16242;SDS011;11719;51.052;6.982;2022-08-19T09:56:27;32.25;;;28.63;;
16242;SDS011;11719;51.052;6.982;2022-08-19T09:58:55;30.70;;;25.67;;
16242;SDS011;11719;51.052;6.982;2022-08-19T10:01:25;31.10;;;26.42;;
16242;SDS011;11719;51.052;6.982;2022-08-19T10:03:55;33.05;;;26.75;;
16242;SDS011;11719;51.052;6.982;2022-08-19T10:06:24;30.10;;;26.00;;
16242;SDS011;11719;51.052;6.982;2022-08-19T10:08:55;23.25;;;19.95;;
16242;SDS011;11719;51.052;6.982;2022-08-19T10:11:21;26.30;;;23.15;;
16242;SDS011;11719;51.052;6.982;2022-08-19T10:13:48;29.15;;;25.33;;
16242;SDS011;11719;51.052;6.982;2022-08-19T10:16:16;27.50;;;24.00;;
16242;SDS011;11719;51.052;6.982;2022-08-19T10:18:45;27.60;;;24.63;;
16242;SDS011;11719;51.052;6.982;2022-08-19T10:21:12;23.13;;;20.52;;
16242;SDS011;11719;51.052;6.982;2022-08-19T10:23:48;14.85;;;13.45;;
16242;SDS011;11719;51.052;6.982;2022-08-19T10:26:18;23.30;;;20.38;;
16242;SDS011;11719;51.052;6.982;2022-08-19T10:28:50;21.83;;;17.83;;
16242;SDS011;11719;51.052;6.982;2022-08-19T10:31:20;23.55;;;21.05;;
16242;SDS011;11719;51.052;6.982;2022-08-19T10:33:57;25.13;;;21.17;;
16242;SDS011;11719;51.052;6.982;2022-08-19T10:36:27;17.95;;;15.30;;
16242;SDS011;11719;51.052;6.982;2022-08-19T10:38:58;12.27;;;11.07;;
16242;SDS011;11719;51.052;6.982;2022-08-19T10:41:28;14.07;;;12.65;;
16242;SDS011;11719;51.052;6.982;2022-08-19T10:43:58;21.02;;;16.67;;
16242;SDS011;11719;51.052;6.982;2022-08-19T10:46:28;20.65;;;18.45;;
16242;SDS011;11719;51.052;6.982;2022-08-19T10:48:58;17.65;;;15.80;;
16242;SDS011;11719;51.052;6.982;2022-08-19T10:51:26;20.20;;;16.13;;
16242;SDS011;11719;51.052;6.982;2022-08-19T10:54:11;20.02;;;18.00;;
16242;SDS011;11719;51.052;6.982;2022-08-19T10:56:37;16.60;;;14.95;;
16242;SDS011;11719;51.052;6.982;2022-08-19T10:59:22;17.50;;;15.82;;
16242;SDS011;11719;51.052;6.982;2022-08-19T11:01:53;19.80;;;17.80;;
16242;SDS011;11719;51.052;6.982;2022-08-19T11:04:24;22.15;;;19.80;;
16242;SDS011;11719;51.052;6.982;2022-08-19T11:06:50;19.05;;;17.05;;
16242;SDS011;11719;51.052;6.982;2022-08-19T11:09:21;18.77;;;16.83;;
16242;SDS011;11719;51.052;6.982;2022-08-19T11:11:56;18.35;;;16.33;;
16242;SDS011;11719;51.052;6.982;2022-08-19T11:14:23;18.50;;;16.42;;
16242;SDS011;11719;51.052;6.982;2022-08-19T11:16:50;17.52;;;14.85;;
16242;SDS011;11719;51.052;6.982;2022-08-19T11:19:21;17.70;;;15.88;;
16242;SDS011;11719;51.052;6.982;2022-08-19T11:21:49;17.38;;;15.25;;
16242;SDS011;11719;51.052;6.982;2022-08-19T11:24:18;18.30;;;16.38;;
16242;SDS011;11719;51.052;6.982;2022-08-19T11:26:49;19.83;;;17.83;;
16242;SDS011;11719;51.052;6.982;2022-08-19T11:29:22;20.80;;;18.63;;
16242;SDS011;11719;51.052;6.982;2022-08-19T11:31:52;14.30;;;12.90;;
16242;SDS011;11719;51.052;6.982;2022-08-19T11:34:20;22.45;;;16.77;;
16242;SDS011;11719;51.052;6.982;2022-08-19T11:36:50;15.20;;;13.50;;
16242;SDS011;11719;51.052;6.982;2022-08-19T11:39:17;17.67;;;15.82;;
16242;SDS011;11719;51.052;6.982;2022-08-19T11:41:46;16.25;;;14.65;;
16242;SDS011;11719;51.052;6.982;2022-08-19T11:44:13;18.70;;;16.75;;
16242;SDS011;11719;51.052;6.982;2022-08-19T11:46:40;16.23;;;14.73;;
16242;SDS011;11719;51.052;6.982;2022-08-19T11:49:10;15.70;;;14.10;;
16242;SDS011;11719;51.052;6.982;2022-08-19T11:51:37;16.80;;;15.10;;
16242;SDS011;11719;51.052;6.982;2022-08-19T11:54:04;15.55;;;13.75;;
16242;SDS011;11719;51.052;6.982;2022-08-19T11:56:31;15.25;;;13.65;;
16242;SDS011;11719;51.052;6.982;2022-08-19T11:58:57;17.50;;;14.65;;
16242;SDS011;11719;51.052;6.982;2022-08-19T12:01:24;16.67;;;14.98;;
16242;SDS011;11719;51.052;6.982;2022-08-19T12:03:52;15.30;;;13.75;;
16242;SDS011;11719;51.052;6.982;2022-08-19T12:06:21;13.07;;;11.88;;
16242;SDS011;11719;51.052;6.982;2022-08-19T12:08:53;15.63;;;14.02;;
16242;SDS011;11719;51.052;6.982;2022-08-19T12:11:24;14.30;;;12.90;;
16242;SDS011;11719;51.052;6.982;2022-08-19T12:13:51;15.43;;;12.15;;
16242;SDS011;11719;51.052;6.982;2022-08-19T12:16:19;11.35;;;10.35;;
16242;SDS011;11719;51.052;6.982;2022-08-19T12:18:51;11.40;;;10.43;;
16242;SDS011;11719;51.052;6.982;2022-08-19T12:21:22;12.80;;;11.60;;
16242;SDS011;11719;51.052;6.982;2022-08-19T12:23:53;11.93;;;10.20;;
16242;SDS011;11719;51.052;6.982;2022-08-19T12:26:20;11.07;;;10.05;;
16242;SDS011;11719;51.052;6.982;2022-08-19T12:28:47;12.82;;;10.43;;
16242;SDS011;11719;51.052;6.982;2022-08-19T12:31:16;10.77;;;9.65;;
16242;SDS011;11719;51.052;6.982;2022-08-19T12:33:44;11.75;;;9.80;;
16242;SDS011;11719;51.052;6.982;2022-08-19T12:36:13;12.60;;;11.25;;
16242;SDS011;11719;51.052;6.982;2022-08-19T12:38:41;13.50;;;11.07;;
16242;SDS011;11719;51.052;6.982;2022-08-19T12:41:10;13.32;;;10.95;;
16242;SDS011;11719;51.052;6.982;2022-08-19T12:43:40;10.93;;;9.88;;
16242;SDS011;11719;51.052;6.982;2022-08-19T12:46:07;11.45;;;9.15;;
16242;SDS011;11719;51.052;6.982;2022-08-19T12:48:34;12.25;;;9.70;;
16242;SDS011;11719;51.052;6.982;2022-08-19T12:51:05;11.45;;;9.77;;
16242;SDS011;11719;51.052;6.982;2022-08-19T12:53:37;9.57;;;8.68;;
16242;SDS011;11719;51.052;6.982;2022-08-19T12:56:04;9.63;;;8.32;;
16242;SDS011;11719;51.052;6.982;2022-08-19T12:58:30;8.85;;;7.95;;
16242;SDS011;11719;51.052;6.982;2022-08-19T13:00:59;11.05;;;9.63;;
16242;SDS011;11719;51.052;6.982;2022-08-19T13:03:32;13.32;;;9.88;;
16242;SDS011;11719;51.052;6.982;2022-08-19T13:05:57;11.60;;;9.43;;
16242;SDS011;11719;51.052;6.982;2022-08-19T13:08:24;9.00;;;8.20;;
16242;SDS011;11719;51.052;6.982;2022-08-19T13:10:49;10.27;;;9.35;;
16242;SDS011;11719;51.052;6.982;2022-08-19T13:13:15;11.52;;;10.07;;
16242;SDS011;11719;51.052;6.982;2022-08-19T13:15:41;12.43;;;10.13;;
16242;SDS011;11719;51.052;6.982;2022-08-19T13:18:10;11.68;;;10.45;;
16242;SDS011;11719;51.052;6.982;2022-08-19T13:20:37;14.38;;;9.63;;
16242;SDS011;11719;51.052;6.982;2022-08-19T13:23:05;10.18;;;9.18;;
16242;SDS011;11719;51.052;6.982;2022-08-19T13:25:32;11.18;;;8.70;;
16242;SDS011;11719;51.052;6.982;2022-08-19T13:27:58;9.35;;;8.48;;
16242;SDS011;11719;51.052;6.982;2022-08-19T13:30:25;9.65;;;8.65;;
16242;SDS011;11719;51.052;6.982;2022-08-19T13:33:09;12.20;;;9.25;;
16242;SDS011;11719;51.052;6.982;2022-08-19T13:35:39;9.70;;;8.02;;
16242;SDS011;11719;51.052;6.982;2022-08-19T13:38:09;10.18;;;7.95;;
16242;SDS011;11719;51.052;6.982;2022-08-19T13:40:36;13.30;;;8.27;;
16242;SDS011;11719;51.052;6.982;2022-08-19T13:43:03;8.18;;;7.40;;
16242;SDS011;11719;51.052;6.982;2022-08-19T13:45:30;8.27;;;7.57;;
16242;SDS011;11719;51.052;6.982;2022-08-19T13:48:01;10.88;;;7.57;;
16242;SDS011;11719;51.052;6.982;2022-08-19T13:50:33;9.65;;;6.38;;
16242;SDS011;11719;51.052;6.982;2022-08-19T13:53:06;8.75;;;7.15;;
16242;SDS011;11719;51.052;6.982;2022-08-19T13:55:33;10.20;;;7.60;;
16242;SDS011;11719;51.052;6.982;2022-08-19T13:58:00;7.72;;;6.93;;
16242;SDS011;11719;51.052;6.982;2022-08-19T14:00:28;8.35;;;6.75;;
16242;SDS011;11719;51.052;6.982;2022-08-19T14:02:59;9.75;;;7.38;;
16242;SDS011;11719;51.052;6.982;2022-08-19T14:05:25;7.53;;;6.60;;
16242;SDS011;11719;51.052;6.982;2022-08-19T14:07:53;6.53;;;5.43;;
16242;SDS011;11719;51.052;6.982;2022-08-19T14:10:20;6.93;;;6.10;;
16242;SDS011;11719;51.052;6.982;2022-08-19T14:12:48;6.85;;;6.13;;
16242;SDS011;11719;51.052;6.982;2022-08-19T14:15:14;8.70;;;6.57;;
16242;SDS011;11719;51.052;6.982;2022-08-19T14:17:42;6.50;;;5.55;;
16242;SDS011;11719;51.052;6.982;2022-08-19T14:20:10;9.15;;;5.78;;
16242;SDS011;11719;51.052;6.982;2022-08-19T14:22:38;10.10;;;6.72;;
16242;SDS011;11719;51.052;6.982;2022-08-19T14:25:06;8.50;;;7.05;;
16242;SDS011;11719;51.052;6.982;2022-08-19T14:27:37;7.65;;;6.85;;
16242;SDS011;11719;51.052;6.982;2022-08-19T14:30:06;7.20;;;6.47;;
16242;SDS011;11719;51.052;6.982;2022-08-19T14:32:35;6.55;;;5.18;;
16242;SDS011;11719;51.052;6.982;2022-08-19T14:35:02;7.22;;;5.10;;
16242;SDS011;11719;51.052;6.982;2022-08-19T14:37:29;6.05;;;5.45;;
16242;SDS011;11719;51.052;6.982;2022-08-19T14:39:55;8.32;;;5.38;;
16242;SDS011;11719;51.052;6.982;2022-08-19T14:42:21;5.50;;;5.07;;
16242;SDS011;11719;51.052;6.982;2022-08-19T14:44:47;8.07;;;5.30;;
16242;SDS011;11719;51.052;6.982;2022-08-19T14:47:13;6.82;;;6.10;;
16242;SDS011;11719;51.052;6.982;2022-08-19T14:49:39;6.43;;;5.43;;
16242;SDS011;11719;51.052;6.982;2022-08-19T14:52:05;6.00;;;5.50;;
16242;SDS011;11719;51.052;6.982;2022-08-19T14:54:31;8.10;;;4.72;;
16242;SDS011;11719;51.052;6.982;2022-08-19T14:56:57;6.35;;;4.88;;